Time;durP1;ratioP1;P1;durP2;ratioP2;P2;SDS_P1;SDS_P2;PMS_P1;PMS_P2;Temp;Humidity;BMP_temperature;BMP_pressure;BME280_temperature;BME280_humidity;BME280_pressure;Samples;Min_cycle;Max_cycle;Signal;HPM_P1;HPM_P2
2024/02/04 00:02:14;;;;;;;;;;;;;;;6.17;100.00;100732.31;4950019;28;20883;-74
2024/02/04 00:04:40;;;;;;;23.45;4.75;;;;;;;6.09;100.00;100701.19;4933613;28;19925;-74
2024/02/04 00:07:05;;;;;;;23.08;4.55;;;;;;;6.21;100.00;100741.69;4949629;28;20161;-74
2024/02/04 00:09:31;;;;;;;24.23;4.45;;;;;;;6.15;100.00;100731.63;4949704;28;20129;-74
2024/02/04 00:11:58;;;;;;;25.97;4.93;;;;;;;6.25;100.00;100719.25;4949399;28;20042;-74
2024/02/04 00:14:23;;;;;;;24.80;4.43;;;;;;;6.18;100.00;100681.00;4949452;28;20053;-74
2024/02/04 00:16:49;;;;;;;18.08;5.78;;;;;;;6.14;100.00;100671.63;4949262;28;20022;-74
2024/02/04 00:19:14;;;;;;;27.63;4.77;;;;;;;6.25;100.00;100690.09;4966809;28;20035;-74
2024/02/04 00:21:40;;;;;;;31.47;4.67;;;;;;;6.16;100.00;100672.34;4949332;28;21048;-74
2024/02/04 00:24:05;;;;;;;30.00;5.93;;;;;;;6.19;100.00;100664.09;4949394;28;20038;-74
2024/02/04 00:26:30;;;;;;;21.92;4.32;;;;;;;6.15;100.00;100665.34;4949538;28;20039;-74
2024/02/04 00:28:56;;;;;;;26.53;4.90;;;;;;;6.09;100.00;100658.78;4949605;28;20093;-74
2024/02/04 00:31:21;;;;;;;30.23;4.27;;;;;;;6.01;100.00;100663.06;4969610;28;20035;-73
2024/02/04 00:33:46;;;;;;;26.70;4.23;;;;;;;6.09;100.00;100676.50;4966220;28;20745;-73
2024/02/04 00:36:12;;;;;;;25.10;3.73;;;;;;;6.04;100.00;100681.34;4949514;28;20039;-74
2024/02/04 00:38:37;;;;;;;20.30;3.60;;;;;;;6.03;100.00;100687.63;4949378;28;20033;-74
2024/02/04 00:41:03;;;;;;;20.80;4.80;;;;;;;6.01;100.00;100663.06;4949154;28;20034;-73
2024/02/04 00:43:29;;;;;;;;;;;;;;;6.08;100.00;100674.81;4979092;28;20035;-74
2024/02/04 00:45:56;;;;;;;30.08;4.30;;;;;;;6.07;100.00;100657.25;4949161;28;19940;-74
2024/02/04 00:48:21;;;;;;;27.65;5.88;;;;;;;6.08;100.00;100664.22;4949569;28;20039;-74
2024/02/04 00:50:47;;;;;;;19.15;3.65;;;;;;;6.02;100.00;100665.59;4949003;28;20782;-74
2024/02/04 00:53:13;;;;;;;24.25;3.55;;;;;;;5.99;100.00;100657.06;4949064;28;20067;-74
2024/02/04 00:55:39;;;;;;;35.23;4.97;;;;;;;6.00;100.00;100667.53;4949136;28;20509;-74
2024/02/04 00:58:04;;;;;;;26.70;4.30;;;;;;;6.00;100.00;100670.19;4949385;28;20394;-74
2024/02/04 01:00:29;;;;;;;18.80;3.57;;;;;;;6.03;100.00;100671.72;4966165;28;20030;-74
2024/02/04 01:02:55;;;;;;;25.37;4.20;;;;;;;5.94;100.00;100652.16;4949352;28;20034;-74
2024/02/04 01:05:20;;;;;;;22.93;3.90;;;;;;;5.89;100.00;100641.94;4948993;28;20034;-74
2024/02/04 01:07:45;;;;;;;36.33;5.40;;;;;;;5.81;100.00;100638.31;4980599;28;20169;-74
2024/02/04 01:10:11;;;;;;;23.52;3.28;;;;;;;5.77;100.00;100650.13;4952388;28;20030;-74
2024/02/04 01:12:36;;;;;;;25.20;4.10;;;;;;;5.91;100.00;100669.16;4952490;28;20513;-74
2024/02/04 01:15:05;;;;;;;23.27;3.70;;;;;;;5.89;100.00;100644.59;4952330;28;20525;-74
2024/02/04 01:17:30;;;;;;;22.00;4.15;;;;;;;5.91;100.00;100650.59;4965614;28;20281;-74
2024/02/04 01:19:56;;;;;;;22.02;3.25;;;;;;;5.88;100.00;100626.19;4952701;28;20023;-74
2024/02/04 01:22:26;;;;;;;18.27;3.57;;;;;;;5.71;100.00;100617.06;4952582;28;20813;-74
2024/02/04 01:24:51;;;;;;;30.50;4.07;;;;;;;5.93;100.00;100667.22;4935807;28;20082;-75
2024/02/04 01:27:17;;;;;;;29.05;4.97;;;;;;;5.99;100.00;100654.41;4936256;28;20059;-74
2024/02/04 01:29:42;;;;;;;25.15;3.25;;;;;;;5.99;100.00;100655.25;4952188;28;20043;-74
2024/02/04 01:32:07;;;;;;;28.47;4.10;;;;;;;5.97;100.00;100643.09;4957827;28;20053;-75
2024/02/04 01:34:33;;;;;;;31.23;3.90;;;;;;;5.90;100.00;100662.19;4963141;28;20273;-75
2024/02/04 01:36:58;;;;;;;23.07;3.53;;;;;;;5.90;100.00;100659.53;4966869;28;20386;-74
2024/02/04 01:39:23;;;;;;;20.37;4.23;;;;;;;5.87;100.00;100651.84;4964710;28;20286;-75
2024/02/04 01:41:50;;;;;;;22.45;4.25;;;;;;;5.92;100.00;100643.47;4952158;28;20026;-75
2024/02/04 01:44:16;;;;;;;;;;;;;;;5.86;100.00;100631.63;4983074;28;20097;-74
2024/02/04 01:46:42;;;;;;;21.73;3.28;;;;;;;5.85;100.00;100647.66;4953652;28;19921;-75
2024/02/04 01:49:08;;;;;;;24.52;5.28;;;;;;;5.87;100.00;100656.28;4952201;28;20031;-75
2024/02/04 01:51:34;;;;;;;25.42;4.88;;;;;;;5.83;100.00;100645.16;4951740;28;20043;-74
2024/02/04 01:54:00;;;;;;;20.33;3.00;;;;;;;5.85;100.00;100629.09;4936004;28;20027;-74
2024/02/04 01:56:26;;;;;;;20.15;4.20;;;;;;;5.87;100.00;100641.22;4964251;28;20656;-75
2024/02/04 01:58:52;;;;;;;;;;;;;;;5.86;100.00;100652.00;4952359;28;20037;-75
2024/02/04 02:01:18;;;;;;;24.75;3.75;;;;;;;5.79;100.00;100641.09;4936080;28;19917;-74
2024/02/04 02:03:43;;;;;;;22.38;4.47;;;;;;;5.85;100.00;100640.56;4974581;28;20026;-75
2024/02/04 02:06:08;;;;;;;24.27;4.40;;;;;;;5.88;100.00;100648.22;4951731;28;20085;-75
2024/02/04 02:08:34;;;;;;;30.70;5.63;;;;;;;5.92;100.00;100648.78;4935890;28;20293;-75
2024/02/04 02:11:08;;;;;;;25.17;3.53;;;;;;;5.91;100.00;100652.41;4951779;28;20030;-74
2024/02/04 02:13:36;;;;;;;20.20;4.47;;;;;;;5.89;100.00;100647.25;4958817;28;20038;-75
2024/02/04 02:16:10;;;;;;;17.48;4.50;;;;;;;5.92;100.00;100664.69;4951635;28;20062;-74
2024/02/04 02:18:39;;;;;;;22.27;3.22;;;;;;;5.98;100.00;100658.88;4977904;28;20038;-75
2024/02/04 02:21:23;;;;;;;19.38;3.75;;;;;;;6.03;100.00;100655.84;4965357;28;20085;-74
2024/02/04 02:24:04;;;;;;;22.00;3.97;;;;;;;6.06;100.00;100637.88;4951341;28;20774;-74
2024/02/04 02:26:37;;;;;;;23.27;4.20;;;;;;;5.96;100.00;100633.50;4935255;28;20671;-76
2024/02/04 02:29:03;;;;;;;20.35;4.35;;;;;;;6.04;100.00;100641.59;4957727;28;20039;-75
2024/02/04 02:31:28;;;;;;;22.25;3.30;;;;;;;6.04;100.00;100646.91;4964444;28;20054;-75
2024/02/04 02:33:54;;;;;;;23.98;4.43;;;;;;;6.09;100.00;100666.72;4951102;28;20039;-74
2024/02/04 02:36:23;;;;;;;22.17;3.97;;;;;;;6.04;100.00;100665.44;4945769;28;20070;-73
2024/02/04 02:39:15;;;;;;;26.67;3.38;;;;;;;6.20;100.00;100681.66;4966667;28;20793;-74
2024/02/04 02:41:44;;;;;;;25.50;3.42;;;;;;;6.19;100.00;100666.75;4966046;28;20450;-74
2024/02/04 02:44:10;;;;;;;24.42;3.35;;;;;;;6.16;100.00;100640.53;4950886;28;20489;-74
2024/02/04 02:46:37;;;;;;;26.23;4.50;;;;;;;6.24;100.00;100679.59;4950892;28;20039;-73
2024/02/04 02:49:02;;;;;;;23.48;4.00;;;;;;;6.36;100.00;100672.38;4976318;28;20083;-74
2024/02/04 02:51:28;;;;;;;29.48;4.53;;;;;;;6.34;100.00;100630.94;4950778;28;20066;-74
2024/02/04 02:53:53;;;;;;;29.03;5.43;;;;;;;6.33;100.00;100621.28;4966515;28;20033;-73
2024/02/04 02:56:19;;;;;;;22.10;4.20;;;;;;;6.41;100.00;100606.50;4950672;28;20974;-74
2024/02/04 02:58:44;;;;;;;24.23;4.13;;;;;;;6.34;100.00;100564.63;4968028;28;20497;-74
2024/02/04 03:01:10;;;;;;;29.48;4.53;;;;;;;6.44;100.00;100577.03;4950399;28;20429;-74
2024/02/04 03:03:36;;;;;;;;;;;;;;;6.38;100.00;100554.56;4944164;28;20487;-74
2024/02/04 03:06:01;;;;;;;26.17;4.05;;;;;;;6.34;100.00;100524.88;4937043;28;19925;-74
2024/02/04 03:08:27;;;;;;;18.40;4.27;;;;;;;6.36;100.00;100542.44;4950753;28;20588;-73
2024/02/04 03:10:52;;;;;;;19.60;4.27;;;;;;;6.41;100.00;100554.28;4966473;28;20998;-73
2024/02/04 03:13:18;;;;;;;18.40;3.80;;;;;;;6.43;100.00;100546.19;4950619;28;20053;-73
2024/02/04 03:15:44;;;;;;;;;;;;;;;6.44;100.00;100522.22;4981202;28;20126;-74
2024/02/04 03:18:09;;;;;;;45.83;6.10;;;;;;;6.46;100.00;100524.69;4976628;28;20005;-74
2024/02/04 03:20:34;;;;;;;17.50;4.07;;;;;;;6.43;100.00;100491.34;4950104;28;20064;-73
2024/02/04 03:23:00;;;;;;;20.05;3.92;;;;;;;6.41;100.00;100500.41;4968197;28;20140;-74
2024/02/04 03:25:28;;;;;;;23.30;3.83;;;;;;;6.29;100.00;100465.28;4944162;28;20131;-74
2024/02/04 03:27:53;;;;;;;15.48;5.00;;;;;;;6.34;100.00;100479.78;4963914;28;20514;-74
2024/02/04 03:30:19;;;;;;;18.65;2.90;;;;;;;6.37;100.00;100478.66;4941887;28;20030;-73
2024/02/04 03:32:44;;;;;;;24.60;3.70;;;;;;;6.33;100.00;100472.78;4964585;28;20039;-73
2024/02/04 03:35:10;;;;;;;18.60;2.77;;;;;;;6.33;100.00;100461.38;4957969;28;20371;-74
2024/02/04 03:37:35;;;;;;;19.97;4.37;;;;;;;6.45;100.00;100454.09;4972580;28;20274;-74
2024/02/04 03:40:01;;;;;;;19.35;3.58;;;;;;;6.46;100.00;100439.81;4949722;28;20027;-74
2024/02/04 03:42:26;;;;;;;24.20;3.73;;;;;;;6.48;100.00;100438.69;4950250;28;20514;-74
2024/02/04 03:44:52;;;;;;;19.95;2.70;;;;;;;6.43;100.00;100438.31;4981223;28;20035;-74
2024/02/04 03:47:17;;;;;;;20.90;3.92;;;;;;;6.42;100.00;100454.38;4950145;28;20340;-74
2024/02/04 03:49:43;;;;;;;20.50;3.83;;;;;;;6.42;100.00;100455.22;4965628;28;20043;-74
2024/02/04 03:52:08;;;;;;;20.90;4.80;;;;;;;6.44;100.00;100437.34;4950088;28;20031;-74
2024/02/04 03:54:33;;;;;;;21.20;4.10;;;;;;;6.48;100.00;100453.78;4949823;28;20058;-74
2024/02/04 03:56:59;;;;;;;25.80;4.50;;;;;;;6.40;100.00;100441.25;4949912;28;20278;-73
2024/02/04 03:59:24;;;;;;;23.60;4.10;;;;;;;6.40;100.00;100446.56;4933838;28;20031;-74
2024/02/04 04:01:50;;;;;;;22.40;2.80;;;;;;;6.37;100.00;100453.94;4967498;28;20037;-74
2024/02/04 04:04:16;;;;;;;;;;;;;;;6.28;100.00;100422.03;4967824;28;20035;-74
2024/02/04 04:06:44;;;;;;;22.65;3.67;;;;;;;6.37;100.00;100465.41;4979778;28;19924;-74
2024/02/04 04:09:09;;;;;;;19.48;3.88;;;;;;;6.44;100.00;100460.34;4967426;28;20541;-73
2024/02/04 04:11:34;;;;;;;19.13;3.73;;;;;;;6.27;100.00;100422.97;4966945;28;20118;-74
2024/02/04 04:14:00;;;;;;;16.73;2.50;;;;;;;6.33;100.00;100464.84;4950004;28;20300;-74
2024/02/04 04:16:25;;;;;;;22.73;5.27;;;;;;;6.42;100.00;100476.41;4975216;28;20034;-74
2024/02/04 04:18:50;;;;;;;27.02;4.38;;;;;;;6.51;100.00;100458.81;4965865;28;20045;-74
2024/02/04 04:21:16;;;;;;;24.60;3.90;;;;;;;6.48;100.00;100428.09;4955698;28;20030;-74
2024/02/04 04:23:41;;;;;;;20.35;3.45;;;;;;;6.38;100.00;100418.50;4953078;28;20042;-74
2024/02/04 04:26:07;;;;;;;30.00;3.87;;;;;;;6.41;100.00;100426.16;4958972;28;20027;-74
2024/02/04 04:28:32;;;;;;;25.37;4.17;;;;;;;6.31;100.00;100411.13;4985757;28;20038;-74
2024/02/04 04:30:57;;;;;;;23.83;4.00;;;;;;;6.32;100.00;100418.09;4949494;28;20035;-74
2024/02/04 04:33:23;;;;;;;21.63;3.47;;;;;;;6.25;100.00;100411.72;4949848;28;20113;-74
2024/02/04 04:35:48;;;;;;;20.10;4.13;;;;;;;6.25;100.00;100419.66;4948585;28;20035;-74
2024/02/04 04:38:14;;;;;;;21.75;4.15;;;;;;;6.31;100.00;100426.19;4948935;28;20066;-74
2024/02/04 04:40:42;;;;;;;17.50;3.40;;;;;;;6.20;100.00;100423.69;4932428;28;20027;-74
2024/02/04 04:43:07;;;;;;;19.45;3.72;;;;;;;6.23;100.00;100464.03;4966320;28;20846;-74
2024/02/04 04:45:33;;;;;;;22.00;2.97;;;;;;;6.21;100.00;100459.84;4969422;28;20027;-74
2024/02/04 04:47:58;;;;;;;19.07;3.67;;;;;;;6.20;100.00;100484.66;4952127;28;20385;-73
2024/02/04 04:50:23;;;;;;;22.13;3.47;;;;;;;6.23;100.00;100513.56;4979589;28;20380;-74
2024/02/04 04:52:49;;;;;;;23.57;3.83;;;;;;;6.18;100.00;100511.34;4969282;28;20058;-74
2024/02/04 04:55:15;;;;;;;23.52;4.35;;;;;;;6.28;100.00;100540.50;4969056;28;20031;-73
2024/02/04 04:57:40;;;;;;;22.42;4.00;;;;;;;6.19;100.00;100528.06;4969205;28;20374;-74
2024/02/04 05:00:07;;;;;;;22.65;5.32;;;;;;;6.24;100.00;100526.66;4951753;28;20033;-74
2024/02/04 05:02:36;;;;;;;13.60;3.65;;;;;;;6.31;100.00;100541.03;4980264;28;20034;-74
2024/02/04 05:05:01;;;;;;;23.45;5.18;;;;;;;6.18;100.00;100526.38;4967415;28;20580;-74
2024/02/04 05:07:27;;;;;;;19.63;3.80;;;;;;;6.06;100.00;100520.38;4969599;28;20129;-74
2024/02/04 05:09:52;;;;;;;20.13;4.97;;;;;;;6.32;100.00;100555.13;4968943;28;20126;-74
2024/02/04 05:12:18;;;;;;;23.57;3.30;;;;;;;6.27;100.00;100536.97;4951848;28;20490;-74
2024/02/04 05:14:43;;;;;;;26.05;4.18;;;;;;;6.25;100.00;100538.09;4951614;28;20035;-74
2024/02/04 05:17:09;;;;;;;24.30;3.77;;;;;;;6.16;100.00;100521.25;4951405;28;20022;-74
2024/02/04 05:19:35;;;;;;;30.67;4.20;;;;;;;6.32;100.00;100523.31;4951794;28;20045;-74
2024/02/04 05:22:01;;;;;;;21.10;3.72;;;;;;;6.33;100.00;100499.31;4955974;28;20026;-74
2024/02/04 05:24:26;;;;;;;25.15;4.88;;;;;;;6.28;100.00;100498.91;4962858;28;20097;-74
2024/02/04 05:26:52;;;;;;;18.83;4.30;;;;;;;6.36;100.00;100510.63;4976133;28;20047;-74
2024/02/04 05:29:17;;;;;;;20.87;4.97;;;;;;;6.40;100.00;100483.69;4969013;28;20129;-74
2024/02/04 05:31:43;;;;;;;32.30;5.55;;;;;;;6.39;100.00;100482.03;4968430;28;20070;-74
2024/02/04 05:34:08;;;;;;;26.05;4.97;;;;;;;6.36;100.00;100481.44;4915321;28;1057964;-74
2024/02/04 05:36:34;;;;;;;22.10;3.90;;;;;;;6.33;100.00;100470.16;4936731;28;20042;-74
2024/02/04 05:39:13;;;;;;;29.30;4.40;;;;;;;6.37;100.00;100472.50;4970002;28;20109;-74
2024/02/04 05:41:38;;;;;;;15.48;3.25;;;;;;;6.33;100.00;100462.19;4969724;28;20278;-74
2024/02/04 05:44:04;;;;;;;22.98;5.65;;;;;;;6.30;100.00;100459.84;4969932;28;20359;-74
2024/02/04 05:46:29;;;;;;;24.48;4.68;;;;;;;6.22;100.00;100438.47;4951996;28;20042;-74
2024/02/04 05:48:55;;;;;;;20.70;4.13;;;;;;;6.36;100.00;100476.16;4952296;28;20042;-74
2024/02/04 05:51:22;;;;;;;27.02;4.68;;;;;;;6.46;100.00;100487.56;4951862;28;20297;-74
2024/02/04 05:53:47;;;;;;;27.05;5.13;;;;;;;6.44;100.00;100441.78;4969528;28;20076;-74
2024/02/04 05:56:12;;;;;;;25.08;4.65;;;;;;;6.31;100.00;100421.72;4950429;28;20038;-74
2024/02/04 05:58:39;;;;;;;26.33;4.22;;;;;;;6.39;100.00;100430.78;4968132;28;20113;-74
2024/02/04 06:01:04;;;;;;;;;;;;;;;6.39;100.00;100428.13;4952257;28;20030;-74
2024/02/04 06:03:29;;;;;;;29.73;4.55;;;;;;;6.39;100.00;100433.44;4936015;28;19910;-74
2024/02/04 06:05:54;;;;;;;29.07;5.27;;;;;;;6.40;100.00;100411.25;4951579;28;20045;-74
2024/02/04 06:08:20;;;;;;;24.80;4.30;;;;;;;6.47;100.00;100417.66;4969363;28;20027;-75
2024/02/04 06:10:45;;;;;;;20.98;5.60;;;;;;;6.39;100.00;100391.88;4968757;28;20039;-74
2024/02/04 06:13:11;;;;;;;27.15;5.07;;;;;;;6.51;100.00;100397.81;4969165;28;20158;-74
2024/02/04 06:15:36;;;;;;;36.03;4.77;;;;;;;6.30;100.00;100372.34;4951417;28;20701;-74
2024/02/04 06:18:02;;;;;;;22.77;5.15;;;;;;;6.37;100.00;100409.72;4952234;28;20022;-74
2024/02/04 06:20:27;;;;;;;23.13;5.27;;;;;;;6.25;100.00;100387.84;4935574;28;20391;-74
2024/02/04 06:22:52;;;;;;;19.50;3.57;;;;;;;6.42;100.00;100449.06;4951516;28;20815;-74
2024/02/04 06:25:18;;;;;;;23.33;5.07;;;;;;;6.37;100.00;100408.88;4973470;28;20125;-74
2024/02/04 06:27:43;;;;;;;18.50;3.77;;;;;;;6.33;100.00;100409.16;4953556;28;20041;-73
2024/02/04 06:30:09;;;;;;;22.70;5.37;;;;;;;6.32;100.00;100391.59;4952179;28;20035;-73
2024/02/04 06:32:34;;;;;;;28.33;4.10;;;;;;;6.49;100.00;100397.13;4963197;28;20030;-74
2024/02/04 06:35:00;;;;;;;23.80;4.83;;;;;;;6.43;100.00;100364.06;4966377;28;20037;-74
2024/02/04 06:37:25;;;;;;;25.33;4.73;;;;;;;6.44;100.00;100368.38;4956265;28;20026;-74
2024/02/04 06:39:52;;;;;;;20.45;3.60;;;;;;;6.43;100.00;100356.09;4973885;28;20034;-74
2024/02/04 06:42:17;;;;;;;29.90;6.30;;;;;;;6.45;100.00;100351.47;4967792;28;20062;-74
2024/02/04 06:44:44;;;;;;;13.55;4.43;;;;;;;6.34;100.00;100357.81;4934997;28;20069;-73
2024/02/04 06:47:12;;;;;;;27.35;4.63;;;;;;;6.17;100.00;100313.50;4935062;28;20018;-73
2024/02/04 06:49:38;;;;;;;25.98;3.58;;;;;;;6.40;100.00;100342.31;4968104;28;20148;-74
2024/02/04 06:52:03;;;;;;;18.25;3.83;;;;;;;6.42;100.00;100353.59;4975523;28;20652;-73
2024/02/04 06:54:29;;;;;;;27.40;6.13;;;;;;;6.49;100.00;100344.09;4967004;28;20043;-73
2024/02/04 06:56:54;;;;;;;23.90;3.73;;;;;;;6.43;100.00;100336.69;4982627;28;20135;-74
2024/02/04 06:59:19;;;;;;;24.13;4.00;;;;;;;6.38;100.00;100325.69;4967914;28;20038;-74
2024/02/04 07:01:45;;;;;;;23.63;4.77;;;;;;;6.37;100.00;100329.31;4950210;28;20085;-73
2024/02/04 07:04:10;;;;;;;33.65;5.72;;;;;;;6.48;100.00;100339.75;4950332;28;20286;-73
2024/02/04 07:06:36;;;;;;;18.20;4.23;;;;;;;6.42;100.00;100338.53;4948354;28;20022;-74
2024/02/04 07:09:01;;;;;;;24.13;4.18;;;;;;;6.41;100.00;100323.56;4967999;28;20026;-74
2024/02/04 07:11:27;;;;;;;21.50;3.87;;;;;;;6.50;100.00;100316.56;4950669;28;20073;-74
2024/02/04 07:13:58;;;;;;;29.43;4.43;;;;;;;6.39;100.00;100300.84;4967899;28;20035;-74
2024/02/04 07:16:24;;;;;;;24.48;4.55;;;;;;;6.38;100.00;100286.75;4950592;28;20100;-73
2024/02/04 07:18:49;;;;;;;28.02;4.57;;;;;;;6.40;100.00;100318.44;4968005;28;20034;-74
2024/02/04 07:21:15;;;;;;;25.27;5.37;;;;;;;6.36;100.00;100293.19;4934606;28;20458;-73
2024/02/04 07:23:40;;;;;;;25.70;4.20;;;;;;;6.38;100.00;100315.09;4967523;28;20069;-74
2024/02/04 07:26:06;;;;;;;21.65;6.10;;;;;;;6.46;100.00;100318.69;4966586;28;20493;-74
2024/02/04 07:28:31;;;;;;;25.13;4.97;;;;;;;6.44;100.00;100302.09;4948623;28;20058;-73
2024/02/04 07:30:56;;;;;;;24.10;4.67;;;;;;;6.39;100.00;100309.66;4966330;28;20120;-74
2024/02/04 07:33:22;;;;;;;23.20;4.07;;;;;;;6.45;100.00;100321.50;4967493;28;20035;-75
2024/02/04 07:35:47;;;;;;;22.33;5.87;;;;;;;6.49;100.00;100339.63;4949866;28;20131;-75
2024/02/04 07:38:13;;;;;;;19.60;3.83;;;;;;;6.52;100.00;100338.47;4950184;28;20033;-75
2024/02/04 07:40:38;;;;;;;24.17;4.47;;;;;;;6.52;100.00;100334.00;4977606;28;20849;-75
2024/02/04 07:43:03;;;;;;;29.87;4.87;;;;;;;6.46;100.00;100307.22;4967197;28;20065;-75
2024/02/04 07:45:29;;;;;;;25.87;4.37;;;;;;;6.59;100.00;100336.91;4967020;28;20042;-75
2024/02/04 07:47:54;;;;;;;32.53;4.70;;;;;;;6.48;100.00;100331.78;4966333;28;20062;-74
2024/02/04 07:50:19;;;;;;;21.63;3.73;;;;;;;6.41;100.00;100317.44;4949998;28;20074;-75
2024/02/04 07:52:45;;;;;;;24.03;5.07;;;;;;;6.51;100.00;100363.34;4948695;28;20121;-75
2024/02/04 07:55:10;;;;;;;27.02;4.93;;;;;;;6.55;100.00;100349.66;4949634;28;20470;-74
2024/02/04 07:57:36;;;;;;;33.30;4.93;;;;;;;6.36;100.00;100301.97;4967199;28;20109;-75
2024/02/04 08:00:05;;;;;;;33.70;4.43;;;;;;;6.36;100.00;100333.78;4966686;28;20281;-75
2024/02/04 08:02:37;;;;;;;26.30;4.70;;;;;;;6.50;100.00;100354.53;4967285;28;20242;-75
2024/02/04 08:05:04;;;;;;;25.05;4.70;;;;;;;6.46;100.00;100347.00;4949473;28;20390;-75
2024/02/04 08:07:30;;;;;;;21.30;5.03;;;;;;;6.51;100.00;100350.09;4967249;28;20429;-75
2024/02/04 08:09:56;;;;;;;26.67;4.57;;;;;;;6.50;100.00;100366.97;4966750;28;20097;-74
2024/02/04 08:12:21;;;;;;;26.17;6.10;;;;;;;6.43;100.00;100355.25;4966227;28;20149;-75
2024/02/04 08:14:46;;;;;;;24.93;5.27;;;;;;;6.48;100.00;100345.88;4966777;28;20826;-75
2024/02/04 08:17:12;;;;;;;25.30;4.30;;;;;;;6.46;100.00;100337.25;4949554;28;20034;-75
2024/02/04 08:19:37;;;;;;;27.10;7.10;;;;;;;6.45;100.00;100332.09;4952803;28;20353;-75
2024/02/04 08:22:04;;;;;;;25.27;4.10;;;;;;;6.42;100.00;100332.41;4970873;28;20375;-75
2024/02/04 08:24:31;;;;;;;26.30;5.95;;;;;;;6.53;100.00;100394.03;4970799;28;20047;-75
2024/02/04 08:26:57;;;;;;;20.25;4.75;;;;;;;6.44;100.00;100351.63;4953433;28;20038;-75
2024/02/04 08:29:23;;;;;;;30.85;4.57;;;;;;;6.52;100.00;100363.19;4970945;28;20045;-75
2024/02/04 08:31:48;;;;;;;18.37;4.20;;;;;;;6.51;100.00;100368.66;4953404;28;20047;-74
2024/02/04 08:34:13;;;;;;;29.73;4.03;;;;;;;6.59;100.00;100359.97;4948677;28;20069;-76
2024/02/04 08:36:39;;;;;;;30.20;6.10;;;;;;;6.64;100.00;100352.38;4970802;28;20030;-75
2024/02/04 08:39:04;;;;;;;25.57;4.10;;;;;;;6.57;100.00;100333.56;4969314;28;20282;-75
2024/02/04 08:41:29;;;;;;;25.53;6.23;;;;;;;6.60;100.00;100343.88;4953163;28;20490;-75
2024/02/04 08:43:55;;;;;;;25.17;4.50;;;;;;;6.61;100.00;100342.91;4953041;28;20050;-75
2024/02/04 08:46:20;;;;;;;25.47;5.40;;;;;;;6.61;100.00;100319.03;4970542;28;20085;-75
2024/02/04 08:48:45;;;;;;;31.90;4.97;;;;;;;6.69;100.00;100324.44;4979067;28;20030;-75
2024/02/04 08:51:15;;;;;;;26.83;6.40;;;;;;;6.73;100.00;100307.25;4977905;28;20532;-75
2024/02/04 08:53:42;;;;;;;21.20;4.35;;;;;;;6.66;100.00;100292.91;4953158;28;20039;-76
2024/02/04 08:56:07;;;;;;;;;;;;;;;6.69;100.00;100289.94;4967504;28;20041;-76
2024/02/04 08:58:33;;;;;;;23.35;4.82;;;;;;;6.61;100.00;100244.75;4932865;28;19921;-76
2024/02/04 09:00:58;;;;;;;22.10;4.07;;;;;;;6.69;100.00;100297.91;4952542;28;20043;-75
2024/02/04 09:03:24;;;;;;;23.38;4.70;;;;;;;6.68;100.00;100285.63;4953038;28;20282;-75
2024/02/04 09:05:49;;;;;;;31.80;5.68;;;;;;;6.66;100.00;100300.03;4953494;28;20041;-75
2024/02/04 09:08:14;;;;;;;29.03;4.70;;;;;;;6.80;100.00;100288.09;4967965;28;20066;-75
2024/02/04 09:10:41;;;;;;;28.17;5.77;;;;;;;6.71;100.00;100253.50;4960673;28;20041;-75
2024/02/04 09:13:06;;;;;;;26.05;4.25;;;;;;;6.71;100.00;100242.88;4968492;28;20026;-74
2024/02/04 09:15:32;;;;;;;27.33;5.28;;;;;;;6.81;100.00;100258.72;4952213;28;20129;-75
2024/02/04 09:17:57;;;;;;;35.83;5.28;;;;;;;6.80;100.00;100238.50;4950959;28;20050;-75
2024/02/04 09:20:23;;;;;;;21.02;6.38;;;;;;;6.81;100.00;100245.47;4957437;28;20050;-75
2024/02/04 09:22:48;;;;;;;30.77;4.53;;;;;;;6.78;100.00;100229.84;4954490;28;20049;-75
2024/02/04 09:25:13;;;;;;;25.83;4.30;;;;;;;6.67;100.00;100177.88;4970305;28;20026;-75
2024/02/04 09:27:39;;;;;;;24.00;4.70;;;;;;;6.82;100.00;100212.66;4956310;28;20537;-76
2024/02/04 09:30:05;;;;;;;30.85;5.47;;;;;;;6.86;100.00;100191.94;4952183;28;20099;-75
2024/02/04 09:32:32;;;;;;;26.00;4.22;;;;;;;6.91;100.00;100205.59;4952490;28;20043;-75
2024/02/04 09:34:57;;;;;;;;;;;;;;;6.85;100.00;100177.00;4952043;28;20031;-75
2024/02/04 09:37:22;;;;;;;23.25;5.43;;;;;;;6.90;100.00;100198.63;4969591;28;20412;-75
2024/02/04 09:39:47;;;;;;;24.13;5.25;;;;;;;6.83;100.00;100171.03;4952030;28;20038;-75
2024/02/04 09:42:20;;;;;;;27.03;5.03;;;;;;;6.73;100.00;100150.72;4952379;28;20694;-75
2024/02/04 09:44:47;;;;;;;23.42;4.75;;;;;;;6.75;100.00;100135.47;4952283;28;20039;-75
2024/02/04 09:47:13;;;;;;;24.02;4.22;;;;;;;6.94;100.00;100178.75;4959523;28;20529;-75
2024/02/04 09:49:39;;;;;;;34.53;6.60;;;;;;;6.83;100.00;100157.75;4980080;28;20045;-75
2024/02/04 09:52:08;;;;;;;31.80;5.80;;;;;;;6.73;100.00;100140.09;4983183;28;20382;-75
2024/02/04 09:54:39;;;;;;;28.00;5.80;;;;;;;6.89;100.00;100179.22;4936049;28;20073;-76
2024/02/04 09:57:05;;;;;;;22.25;3.80;;;;;;;6.80;100.00;100156.25;4951784;28;20543;-75
2024/02/04 09:59:31;;;;;;;23.45;5.25;;;;;;;6.94;100.00;100173.44;4951936;28;20106;-75
2024/02/04 10:01:57;;;;;;;;;;;;;;;6.86;100.00;100162.75;4969232;28;20382;-75
2024/02/04 10:04:22;;;;;;;22.88;4.93;;;;;;;6.89;100.00;100159.81;4968857;28;19910;-75
2024/02/04 10:06:48;;;;;;;31.00;6.05;;;;;;;6.81;100.00;100127.88;4951381;28;20042;-75
2024/02/04 10:09:13;;;;;;;18.73;4.13;;;;;;;6.88;100.00;100164.28;4951799;28;20502;-75
2024/02/04 10:11:38;;;;;;;38.67;6.88;;;;;;;6.99;100.00;100155.25;4951401;28;20460;-75
2024/02/04 10:14:04;;;;;;;24.10;5.37;;;;;;;6.96;100.00;100134.31;4982778;28;20057;-74
2024/02/04 10:16:30;;;;;;;27.27;4.60;;;;;;;6.92;100.00;100119.69;4951453;28;20035;-75
2024/02/04 10:18:56;;;;;;;;;;;;;;;6.87;100.00;100076.88;4951869;28;20046;-75
2024/02/04 10:21:23;;;;;;;28.45;5.07;;;;;;;7.01;100.00;100126.72;4951443;28;20277;-74
2024/02/04 10:23:50;;;;;;;40.78;6.80;;;;;;;6.94;100.00;100083.22;4959872;28;20046;-74
2024/02/04 10:26:16;;;;;;;22.95;4.55;;;;;;;7.09;100.00;100097.56;4958450;28;20035;-75
2024/02/04 10:28:41;;;;;;;;;;;;;;;6.96;100.00;100060.84;4941962;28;20129;-75
2024/02/04 10:31:10;;;;;;;20.63;4.30;;;;;;;7.03;100.00;100074.31;4951117;28;20004;-75
2024/02/04 10:33:39;;;;;;;33.78;5.43;;;;;;;7.00;100.00;100053.41;4977329;28;20031;-75
2024/02/04 10:36:05;;;;;;;24.85;5.47;;;;;;;7.05;100.00;100047.63;4974524;28;20030;-74
2024/02/04 10:38:32;;;;;;;26.35;4.25;;;;;;;6.98;100.00;100040.28;4951288;28;20406;-75
2024/02/04 10:41:01;;;;;;;25.00;4.75;;;;;;;7.04;100.00;100049.44;4950265;28;20458;-75
2024/02/04 10:43:37;;;;;;;32.85;4.55;;;;;;;7.00;100.00;100042.78;4951144;28;20042;-74
2024/02/04 10:46:23;;;;;;;;;;;;;;;7.08;100.00;100024.25;4968796;28;20042;-74
2024/02/04 10:49:03;;;;;;;18.95;4.50;;;;;;;7.08;100.00;100042.00;4973380;28;19972;-74
2024/02/04 10:51:30;;;;;;;21.92;5.20;;;;;;;7.00;100.00;100024.22;4934778;28;20141;-75
2024/02/04 10:53:56;;;;;;;28.90;5.55;;;;;;;7.23;100.00;100063.47;4967911;28;20568;-75
2024/02/04 10:56:29;;;;;;;30.85;5.55;;;;;;;7.20;100.00;100046.06;4968022;28;20054;-74
2024/02/04 10:58:56;;;;;;;30.67;5.47;;;;;;;7.23;100.00;100023.66;4950769;28;20038;-74
2024/02/04 11:01:22;;;;;;;20.15;4.70;;;;;;;7.22;100.00;99998.13;4968077;28;20437;-75
2024/02/04 11:03:49;;;;;;;21.63;4.00;;;;;;;7.34;100.00;99986.22;4967775;28;20045;-75
2024/02/04 11:06:15;;;;;;;26.13;4.63;;;;;;;7.13;100.00;99926.38;4934424;28;20041;-75
2024/02/04 11:08:41;;;;;;;;;;;;;;;7.28;100.00;99968.25;4951205;28;20633;-74
2024/02/04 11:11:06;;;;;;;25.23;5.20;;;;;;;7.34;100.00;99997.66;4950574;28;19981;-74
2024/02/04 11:13:33;;;;;;;23.30;4.90;;;;;;;7.33;100.00;99960.66;4950740;28;20464;-75
2024/02/04 11:16:04;;;;;;;18.52;3.75;;;;;;;7.44;100.00;99976.28;4954962;28;20031;-75
2024/02/04 11:18:50;;;;;;;27.15;5.72;;;;;;;7.25;100.00;99953.47;4964319;28;20042;-75